createdAt,value
2018-11-02T00:00:37.151Z,9.30
2018-11-02T00:03:06.038Z,9.30
2018-11-02T00:05:34.140Z,9.35
2018-11-02T00:08:02.243Z,9.27
2018-11-02T00:10:30.343Z,9.21
2018-11-02T00:12:58.934Z,9.22
2018-11-02T00:15:27.223Z,9.12
2018-11-02T00:17:55.330Z,9.07
2018-11-02T00:20:23.434Z,9.10
2018-11-02T00:22:51.526Z,8.94
2018-11-02T00:25:19.630Z,9.03
2018-11-02T00:27:47.741Z,9.01
2018-11-02T00:30:15.836Z,9.03
2018-11-02T00:32:43.938Z,9.00
2018-11-02T00:35:12.036Z,8.99
2018-11-02T00:37:40.138Z,8.97
2018-11-02T00:40:09.067Z,8.99
2018-11-02T00:42:38.278Z,8.98
2018-11-02T00:45:07.783Z,9.01
2018-11-02T00:47:35.871Z,9.06
2018-11-02T00:50:03.991Z,9.14
2018-11-02T00:52:32.089Z,9.13
2018-11-02T00:55:00.177Z,9.12
2018-11-02T00:57:28.270Z,9.10
2018-11-02T00:59:56.355Z,9.09
2018-11-02T01:02:24.448Z,9.07
2018-11-02T01:04:52.578Z,9.08
2018-11-02T01:07:20.680Z,9.10
2018-11-02T01:09:48.772Z,9.10
2018-11-02T01:12:16.863Z,9.10
2018-11-02T01:14:45.153Z,9.10
2018-11-02T01:17:13.246Z,9.09
2018-11-02T01:19:41.326Z,8.96
2018-11-02T01:22:09.454Z,8.96
2018-11-02T01:24:37.530Z,8.90
2018-11-02T01:27:05.661Z,8.88
2018-11-02T01:29:33.748Z,8.92
2018-11-02T01:32:01.843Z,8.87
2018-11-02T01:34:29.936Z,8.88
2018-11-02T01:36:58.040Z,8.74
2018-11-02T01:39:26.144Z,8.72
2018-11-02T01:41:54.260Z,8.78
2018-11-02T01:44:22.404Z,8.78
2018-11-02T01:46:50.508Z,8.78
2018-11-02T01:49:18.612Z,8.80
2018-11-02T01:51:46.703Z,8.77
2018-11-02T01:54:14.807Z,8.77
2018-11-02T01:56:42.906Z,8.80
2018-11-02T01:59:11.014Z,8.70
2018-11-02T02:01:39.111Z,8.72
2018-11-02T02:04:07.326Z,8.64
2018-11-02T02:06:35.416Z,8.56
2018-11-02T02:09:03.823Z,8.48
2018-11-02T02:11:31.934Z,8.57
2018-11-02T02:14:00.037Z,8.49
2018-11-02T02:16:28.133Z,8.46
2018-11-02T02:18:56.423Z,8.47
2018-11-02T02:21:24.522Z,8.49
2018-11-02T02:23:52.626Z,8.55
2018-11-02T02:26:20.761Z,8.60
2018-11-02T02:28:48.871Z,8.66
2018-11-02T02:31:16.970Z,8.68
2018-11-02T02:33:45.091Z,8.73
2018-11-02T02:36:13.179Z,8.80
2018-11-02T02:38:41.279Z,8.85
2018-11-02T02:41:09.386Z,8.87
2018-11-02T02:43:37.489Z,8.90
2018-11-02T02:46:06.196Z,8.94
2018-11-02T02:48:34.291Z,8.94
2018-11-02T02:51:02.404Z,8.92
2018-11-02T02:53:30.503Z,8.90
2018-11-02T02:55:58.606Z,8.88
2018-11-02T02:58:26.723Z,8.90
2018-11-02T03:00:54.817Z,8.94
2018-11-02T03:03:22.920Z,8.98
2018-11-02T03:05:51.025Z,9.01
2018-11-02T03:08:19.177Z,9.06
2018-11-02T03:10:47.463Z,9.12
2018-11-02T03:13:15.499Z,9.08
2018-11-02T03:15:43.602Z,9.05
2018-11-02T03:18:11.701Z,9.00
2018-11-02T03:20:39.803Z,8.94
2018-11-02T03:23:07.907Z,8.86
2018-11-02T03:25:36.032Z,8.71
2018-11-02T03:28:04.114Z,8.69
2018-11-02T03:30:32.215Z,8.62
2018-11-02T03:33:00.347Z,8.62
2018-11-02T03:35:28.457Z,8.59
2018-11-02T03:37:56.554Z,8.59
2018-11-02T03:40:24.667Z,8.58
2018-11-02T03:42:52.759Z,8.51
2018-11-02T03:45:20.859Z,8.46
2018-11-02T03:47:48.953Z,8.45
2018-11-02T03:50:17.498Z,8.47
2018-11-02T03:52:45.591Z,8.53
2018-11-02T03:55:13.683Z,8.57
2018-11-02T03:57:41.783Z,8.63
2018-11-02T04:00:10.348Z,8.65
2018-11-02T04:02:38.799Z,8.65
2018-11-02T04:05:07.477Z,8.68
2018-11-02T04:07:35.586Z,8.69
2018-11-02T04:10:03.712Z,8.69
2018-11-02T04:12:31.812Z,8.67
2018-11-02T04:14:59.907Z,8.67
2018-11-02T04:17:27.996Z,8.65
2018-11-02T04:19:56.088Z,8.64
2018-11-02T04:22:24.174Z,8.67
2018-11-02T04:24:52.265Z,8.70
2018-11-02T04:27:20.369Z,8.73
2018-11-02T04:29:48.487Z,8.66
2018-11-02T04:32:16.561Z,8.63
2018-11-02T04:34:44.645Z,8.61
2018-11-02T04:37:12.746Z,8.61
2018-11-02T04:39:40.824Z,8.59
2018-11-02T04:42:08.922Z,8.50
2018-11-02T04:44:37.108Z,8.45
2018-11-02T04:47:05.859Z,8.47
2018-11-02T04:49:33.951Z,8.52
2018-11-02T04:52:02.030Z,8.53
2018-11-02T04:54:30.124Z,8.51
2018-11-02T04:56:58.212Z,8.48
2018-11-02T04:59:26.305Z,8.45
2018-11-02T05:01:54.390Z,8.41
2018-11-02T05:04:22.496Z,8.41
2018-11-02T05:06:50.578Z,8.37
2018-11-02T05:09:18.669Z,8.31
2018-11-02T05:11:46.757Z,8.22
2018-11-02T05:14:14.853Z,8.18
2018-11-02T05:16:42.949Z,8.12
2018-11-02T05:19:11.254Z,8.17
2018-11-02T05:21:39.331Z,8.04
2018-11-02T05:24:07.423Z,8.01
2018-11-02T05:26:35.519Z,8.06
2018-11-02T05:29:03.616Z,8.13
2018-11-02T05:31:31.696Z,8.19
2018-11-02T05:33:59.830Z,8.22
2018-11-02T05:36:27.918Z,8.22
2018-11-02T05:38:56.011Z,8.21
2018-11-02T05:41:24.248Z,8.20
2018-11-02T05:43:52.407Z,8.19
2018-11-02T05:46:20.497Z,8.16
2018-11-02T05:48:48.596Z,8.12
2018-11-02T05:51:16.689Z,8.09
2018-11-02T05:53:44.779Z,8.07
2018-11-02T05:56:12.860Z,8.03
2018-11-02T05:58:41.031Z,8.02
2018-11-02T06:01:09.110Z,8.01
2018-11-02T06:03:37.199Z,8.01
2018-11-02T06:06:05.386Z,7.96
2018-11-02T06:08:33.433Z,7.95
2018-11-02T06:11:01.529Z,7.97
2018-11-02T06:13:29.720Z,7.94
2018-11-02T06:15:57.717Z,7.84
2018-11-02T06:18:25.807Z,7.77
2018-11-02T06:20:53.903Z,7.74
2018-11-02T06:23:21.993Z,7.79
2018-11-02T06:25:50.074Z,7.84
2018-11-02T06:28:18.166Z,7.95
2018-11-02T06:30:46.466Z,7.90
2018-11-02T06:33:14.496Z,7.85
2018-11-02T06:35:42.583Z,7.86
2018-11-02T06:38:10.680Z,7.80
2018-11-02T06:40:38.777Z,7.69
2018-11-02T06:43:07.652Z,7.70
2018-11-02T06:45:35.753Z,7.72
2018-11-02T06:48:03.853Z,7.76
2018-11-02T06:50:31.954Z,7.65
2018-11-02T06:53:00.050Z,7.69
2018-11-02T06:55:28.150Z,7.73
2018-11-02T06:57:56.254Z,7.82
2018-11-02T07:00:24.442Z,7.86
2018-11-02T07:02:52.448Z,7.86
2018-11-02T07:05:20.549Z,7.91
2018-11-02T07:07:49.807Z,7.94
2018-11-02T07:10:17.807Z,7.98
2018-11-02T07:12:45.916Z,8.04
2018-11-02T07:15:14.006Z,8.04
2018-11-02T07:17:42.124Z,8.08
2018-11-02T07:20:10.221Z,8.09
2018-11-02T07:22:38.325Z,8.09
2018-11-02T07:25:07.015Z,8.11
2018-11-02T07:27:35.075Z,8.18
2018-11-02T07:30:03.182Z,8.27
2018-11-02T07:32:31.443Z,8.33
2018-11-02T07:34:59.530Z,8.43
2018-11-02T07:37:27.630Z,8.53
2018-11-02T07:39:55.738Z,8.65
2018-11-02T07:42:23.836Z,8.74
2018-11-02T07:44:52.033Z,8.80
2018-11-02T07:47:20.217Z,8.83
2018-11-02T07:49:48.260Z,8.90
2018-11-02T07:52:16.445Z,8.86
2018-11-02T07:54:44.539Z,8.77
2018-11-02T07:57:12.652Z,8.77
2018-11-02T07:59:40.844Z,8.79
2018-11-02T08:02:08.866Z,8.83
2018-11-02T08:04:36.962Z,8.87
2018-11-02T08:07:05.080Z,8.94
2018-11-02T08:09:33.184Z,9.02
2018-11-02T08:12:01.382Z,9.05
2018-11-02T08:14:29.395Z,9.08
2018-11-02T08:16:57.493Z,9.11
2018-11-02T08:19:25.590Z,9.10
2018-11-02T08:21:53.683Z,9.08
2018-11-02T08:24:21.859Z,8.99
2018-11-02T08:26:49.927Z,8.85
2018-11-02T08:29:18.034Z,8.83
2018-11-02T08:31:46.167Z,8.78
2018-11-02T08:34:14.411Z,8.77
2018-11-02T08:36:43.198Z,8.79
2018-11-02T08:39:12.231Z,8.83
2018-11-02T08:41:40.330Z,8.84
2018-11-02T08:44:09.343Z,8.89
2018-11-02T08:46:37.425Z,8.97
2018-11-02T08:49:05.570Z,9.01
2018-11-02T08:51:33.658Z,9.08
2018-11-02T08:54:01.745Z,9.09
2018-11-02T08:56:29.963Z,9.18
2018-11-02T08:58:58.047Z,9.26
2018-11-02T09:01:26.106Z,9.37
2018-11-02T09:03:54.199Z,9.48
2018-11-02T09:06:22.284Z,9.51
2018-11-02T09:08:50.430Z,9.53
2018-11-02T09:11:18.561Z,9.58
2018-11-02T09:13:46.637Z,9.65
2018-11-02T09:16:14.726Z,9.69
2018-11-02T09:18:43.371Z,9.76
2018-11-02T09:21:11.462Z,9.80
2018-11-02T09:23:39.546Z,9.88
2018-11-02T09:26:07.871Z,9.98
2018-11-02T09:28:35.947Z,10.06
2018-11-02T09:31:04.125Z,10.09
2018-11-02T09:33:32.231Z,10.07
2018-11-02T09:36:00.332Z,10.04
2018-11-02T09:38:28.414Z,9.93
2018-11-02T09:40:56.510Z,9.87
2018-11-02T09:43:24.642Z,9.83
2018-11-02T09:45:52.804Z,9.80
2018-11-02T09:48:20.862Z,9.80
2018-11-02T09:50:48.969Z,9.83
2018-11-02T09:53:17.049Z,9.85
2018-11-02T09:55:45.222Z,9.88
2018-11-02T09:58:13.259Z,9.88
2018-11-02T10:00:41.345Z,9.94
2018-11-02T10:03:09.430Z,9.97
2018-11-02T10:05:37.532Z,10.05
2018-11-02T10:08:05.630Z,10.18
2018-11-02T10:10:33.732Z,10.23
2018-11-02T10:13:01.824Z,10.28
2018-11-02T10:15:30.063Z,10.31
2018-11-02T10:17:58.019Z,10.39
2018-11-02T10:20:26.126Z,10.54
2018-11-02T10:22:54.206Z,10.60
2018-11-02T10:25:22.289Z,10.76
2018-11-02T10:27:50.383Z,10.79
2018-11-02T10:30:18.468Z,10.82
2018-11-02T10:32:49.244Z,10.82
2018-11-02T10:35:17.314Z,10.87
2018-11-02T10:37:45.527Z,10.98
2018-11-02T10:40:15.459Z,11.09
2018-11-02T10:42:44.773Z,11.15
2018-11-02T10:45:12.880Z,11.11
2018-11-02T10:47:40.994Z,11.15
2018-11-02T10:50:09.096Z,11.22
2018-11-02T10:52:37.214Z,11.23
2018-11-02T10:55:05.345Z,11.32
2018-11-02T10:57:33.461Z,11.39
2018-11-02T11:00:01.561Z,11.53
2018-11-02T11:02:35.242Z,11.66
2018-11-02T11:05:03.413Z,11.82
2018-11-02T11:07:31.523Z,11.78
2018-11-02T11:09:59.884Z,11.78
2018-11-02T11:12:28.172Z,11.88
2018-11-02T11:14:56.147Z,11.96
2018-11-02T11:17:24.239Z,12.05
2018-11-02T11:19:52.349Z,12.14
2018-11-02T11:22:20.454Z,12.28
2018-11-02T11:24:48.571Z,12.43
2018-11-02T11:27:16.667Z,12.51
2018-11-02T11:29:44.816Z,12.48
2018-11-02T11:32:12.870Z,12.54
2018-11-02T11:34:41.002Z,12.65
2018-11-02T11:37:09.134Z,12.85
2018-11-02T11:39:37.273Z,12.92
2018-11-02T11:42:05.866Z,13.08
2018-11-02T11:44:33.866Z,13.26
2018-11-02T11:47:01.945Z,13.50
2018-11-02T11:49:30.105Z,13.76
2018-11-02T11:51:58.189Z,14.02
2018-11-02T11:54:26.614Z,14.21
2018-11-02T11:56:54.617Z,14.32
2018-11-02T11:59:22.715Z,14.48
2018-11-02T12:01:50.805Z,14.57
2018-11-02T12:04:19.119Z,14.63
2018-11-02T12:06:47.146Z,14.69
2018-11-02T12:09:15.272Z,14.69
2018-11-02T12:11:43.338Z,14.70
2018-11-02T12:14:11.490Z,14.70
2018-11-02T12:16:39.640Z,14.66
2018-11-02T12:19:07.739Z,14.58
2018-11-02T12:21:35.852Z,14.47
2018-11-02T12:24:04.016Z,14.38
2018-11-02T12:26:32.127Z,14.30
2018-11-02T12:29:00.215Z,14.22
2018-11-02T12:31:28.316Z,14.22
2018-11-02T12:33:56.394Z,14.21
2018-11-02T12:36:24.498Z,14.18
2018-11-02T12:38:52.584Z,14.16
2018-11-02T12:41:20.679Z,14.14
2018-11-02T12:43:49.003Z,14.20
2018-11-02T12:46:18.246Z,14.32
2018-11-02T12:48:46.544Z,14.45
2018-11-02T12:51:14.528Z,14.51
2018-11-02T12:53:42.649Z,14.53
2018-11-02T12:56:10.898Z,14.57
2018-11-02T12:58:39.031Z,14.55
2018-11-02T13:01:07.120Z,14.52
2018-11-02T13:03:35.216Z,14.48
2018-11-02T13:06:03.319Z,14.42
2018-11-02T13:08:31.457Z,14.44
2018-11-02T13:10:59.557Z,14.44
2018-11-02T13:13:27.714Z,14.46
2018-11-02T13:15:55.899Z,14.49
2018-11-02T13:18:24.003Z,14.48
2018-11-02T13:20:52.123Z,14.53
2018-11-02T13:23:20.255Z,14.58
2018-11-02T13:25:48.444Z,14.58
2018-11-02T13:28:16.525Z,14.58
2018-11-02T13:30:44.690Z,14.66
2018-11-02T13:33:12.713Z,14.80
2018-11-02T13:35:40.854Z,14.89
2018-11-02T13:38:09.029Z,14.99
2018-11-02T13:40:37.200Z,15.05
2018-11-02T13:43:05.544Z,15.10
2018-11-02T13:45:33.653Z,15.10
2018-11-02T13:48:01.751Z,15.05
2018-11-02T13:50:30.028Z,15.00
2018-11-02T13:52:58.674Z,14.93
2018-11-02T13:55:26.752Z,14.86
2018-11-02T13:57:54.859Z,14.76
2018-11-02T14:00:23.024Z,14.71
2018-11-02T14:02:51.217Z,14.68
2018-11-02T14:05:19.253Z,14.64
2018-11-02T14:07:47.354Z,14.61
2018-11-02T14:10:15.457Z,14.62
2018-11-02T14:12:43.616Z,14.63
2018-11-02T14:15:14.040Z,14.65
2018-11-02T14:17:42.629Z,14.69
2018-11-02T14:20:11.841Z,14.70
2018-11-02T14:22:40.121Z,14.72
2018-11-02T14:25:10.418Z,14.74
2018-11-02T14:27:38.539Z,14.74
2018-11-02T14:30:08.542Z,14.75
2018-11-02T14:32:36.890Z,14.74
2018-11-02T14:35:05.056Z,14.75
2018-11-02T14:37:33.223Z,14.77
2018-11-02T14:40:01.267Z,14.78
2018-11-02T14:42:29.377Z,14.77
2018-11-02T14:44:57.487Z,14.77
2018-11-02T14:47:25.599Z,14.70
2018-11-02T14:49:53.724Z,14.66
2018-11-02T14:52:21.819Z,14.62
2018-11-02T14:54:49.918Z,14.59
2018-11-02T14:57:18.005Z,14.56
2018-11-02T14:59:46.117Z,14.50
2018-11-02T15:02:14.198Z,14.47
2018-11-02T15:04:42.289Z,14.44
2018-11-02T15:07:10.369Z,14.38
2018-11-02T15:09:38.465Z,14.34
2018-11-02T15:12:06.564Z,14.28
2018-11-02T15:14:34.840Z,14.22
2018-11-02T15:17:02.931Z,14.13
2018-11-02T15:19:31.022Z,14.05
2018-11-02T15:21:59.113Z,13.99
2018-11-02T15:24:27.195Z,13.89
2018-11-02T15:26:55.286Z,13.80
2018-11-02T15:29:23.367Z,13.74
2018-11-02T15:31:51.618Z,13.67
2018-11-02T15:34:19.698Z,13.58
2018-11-02T15:36:47.832Z,13.49
2018-11-02T15:39:15.911Z,13.41
2018-11-02T15:41:44.004Z,13.34
2018-11-02T15:44:12.159Z,13.28
2018-11-02T15:46:40.193Z,13.20
2018-11-02T15:49:08.281Z,13.13
2018-11-02T15:51:36.374Z,13.06
2018-11-02T15:54:04.723Z,12.99
2018-11-02T15:56:32.824Z,12.92
2018-11-02T15:59:00.910Z,12.86
2018-11-02T16:01:29.004Z,12.82
2018-11-02T16:03:57.087Z,12.78
2018-11-02T16:06:25.190Z,12.75
2018-11-02T16:08:53.290Z,12.70
2018-11-02T16:11:21.380Z,12.66
2018-11-02T16:13:49.475Z,12.61
2018-11-02T16:16:17.563Z,12.56
2018-11-02T16:18:45.654Z,12.54
2018-11-02T16:21:13.749Z,12.50
2018-11-02T16:23:41.837Z,12.45
2018-11-02T16:26:10.106Z,12.40
2018-11-02T16:28:38.374Z,12.34
2018-11-02T16:31:06.468Z,12.28
2018-11-02T16:33:34.564Z,12.21
2018-11-02T16:36:02.643Z,12.14
2018-11-02T16:38:30.738Z,12.08
2018-11-02T16:40:58.814Z,12.03
2018-11-02T16:43:26.920Z,11.97
2018-11-02T16:45:55.001Z,11.91
2018-11-02T16:48:23.104Z,11.85
2018-11-02T16:50:51.195Z,11.81
2018-11-02T16:53:19.283Z,11.77
2018-11-02T16:55:47.455Z,11.73
2018-11-02T16:58:15.479Z,11.70
2018-11-02T17:00:43.548Z,11.68
2018-11-02T17:03:11.642Z,11.66
2018-11-02T17:05:39.733Z,11.64
2018-11-02T17:08:07.836Z,11.63
2018-11-02T17:10:35.963Z,11.62
2018-11-02T17:13:04.191Z,11.60
2018-11-02T17:15:32.276Z,11.59
2018-11-02T17:18:00.428Z,11.58
2018-11-02T17:20:28.467Z,11.57
2018-11-02T17:22:56.604Z,11.58
2018-11-02T17:25:24.705Z,11.58
2018-11-02T17:27:52.883Z,11.57
2018-11-02T17:30:20.928Z,11.59
2018-11-02T17:32:49.015Z,11.60
2018-11-02T17:35:17.112Z,11.62
2018-11-02T17:37:45.222Z,11.63
2018-11-02T17:40:14.529Z,11.66
2018-11-02T17:42:43.075Z,11.69
2018-11-02T17:45:11.190Z,11.71
2018-11-02T17:47:40.350Z,11.74
2018-11-02T17:50:09.790Z,11.77
2018-11-02T17:52:37.881Z,11.81
2018-11-02T17:55:06.014Z,11.85
2018-11-02T17:57:34.283Z,11.90
2018-11-02T18:00:02.382Z,11.92
2018-11-02T18:02:30.474Z,11.95
2018-11-02T18:04:58.624Z,11.97
2018-11-02T18:07:26.711Z,11.99
2018-11-02T18:09:54.799Z,12.00
2018-11-02T18:12:22.974Z,12.03
2018-11-02T18:14:50.985Z,12.04
2018-11-02T18:17:19.087Z,12.06
2018-11-02T18:19:47.201Z,12.07
2018-11-02T18:22:15.350Z,12.07
2018-11-02T18:24:43.383Z,12.03
2018-11-02T18:27:11.534Z,12.02
2018-11-02T18:29:39.617Z,12.00
2018-11-02T18:32:07.721Z,11.98
2018-11-02T18:34:35.827Z,11.98
2018-11-02T18:37:04.785Z,11.98
2018-11-02T18:39:32.935Z,11.98
2018-11-02T18:42:00.997Z,11.98
2018-11-02T18:44:29.130Z,11.97
2018-11-02T18:46:57.179Z,11.98
2018-11-02T18:49:25.298Z,11.96
2018-11-02T18:51:53.498Z,11.96
2018-11-02T18:54:22.591Z,11.97
2018-11-02T18:56:50.955Z,11.98
2018-11-02T18:59:19.286Z,11.99
2018-11-02T19:01:47.782Z,11.96
2018-11-02T19:04:15.862Z,11.96
2018-11-02T19:06:43.944Z,11.97
2018-11-02T19:09:12.042Z,11.97
2018-11-02T19:11:40.336Z,12.00
2018-11-02T19:14:08.591Z,11.96
2018-11-02T19:16:36.780Z,11.91
2018-11-02T19:19:05.351Z,11.91
2018-11-02T19:21:33.588Z,11.93
2018-11-02T19:24:01.606Z,11.95
2018-11-02T19:26:29.733Z,11.97
2018-11-02T19:28:57.874Z,11.98
2018-11-02T19:31:25.992Z,12.00
2018-11-02T19:33:54.084Z,12.00
2018-11-02T19:36:22.165Z,12.00
2018-11-02T19:38:50.286Z,12.01
2018-11-02T19:41:18.350Z,11.98
2018-11-02T19:43:46.478Z,11.95
2018-11-02T19:46:14.532Z,11.92
2018-11-02T19:48:42.629Z,11.94
2018-11-02T19:51:10.845Z,11.95
2018-11-02T19:53:39.191Z,11.94
2018-11-02T19:56:07.203Z,11.96
2018-11-02T19:58:35.303Z,11.95
2018-11-02T20:01:03.477Z,11.96
2018-11-02T20:03:31.663Z,11.94
2018-11-02T20:05:59.751Z,11.92
2018-11-02T20:08:28.004Z,11.91
2018-11-02T20:10:56.100Z,11.87
2018-11-02T20:13:24.205Z,11.83
2018-11-02T20:15:52.307Z,11.81
2018-11-02T20:18:20.396Z,11.79
2018-11-02T20:20:48.492Z,11.78
2018-11-02T20:23:16.571Z,11.77
2018-11-02T20:25:44.672Z,11.75
2018-11-02T20:28:12.757Z,11.74
2018-11-02T20:30:40.859Z,11.75
2018-11-02T20:33:08.964Z,11.73
2018-11-02T20:35:37.111Z,11.73
2018-11-02T20:38:05.159Z,11.72
2018-11-02T20:40:33.327Z,11.70
2018-11-02T20:43:01.372Z,11.70
2018-11-02T20:45:29.489Z,11.70
2018-11-02T20:47:57.579Z,11.71
2018-11-02T20:50:25.696Z,11.70
2018-11-02T20:52:53.974Z,11.72
2018-11-02T20:55:22.089Z,11.72
2018-11-02T20:57:50.178Z,11.73
2018-11-02T21:00:21.696Z,11.71
2018-11-02T21:02:49.866Z,11.72
2018-11-02T21:05:18.855Z,11.72
2018-11-02T21:07:47.446Z,11.75
2018-11-02T21:10:16.752Z,11.74
2018-11-02T21:12:44.986Z,11.76
2018-11-02T21:15:21.424Z,11.77
2018-11-02T21:17:49.961Z,11.77
2018-11-02T21:20:19.447Z,11.78
2018-11-02T21:22:47.535Z,11.79
2018-11-02T21:25:15.749Z,11.80
2018-11-02T21:27:44.412Z,11.80
2018-11-02T21:30:15.692Z,11.80
2018-11-02T21:32:44.756Z,11.79
2018-11-02T21:35:12.895Z,11.78
2018-11-02T21:37:41.018Z,11.80
2018-11-02T21:40:11.999Z,11.80
2018-11-02T21:42:40.122Z,11.81
2018-11-02T21:45:08.220Z,11.82
2018-11-02T21:47:36.317Z,11.84
2018-11-02T21:50:04.736Z,11.87
2018-11-02T21:52:32.846Z,11.91
2018-11-02T21:55:00.931Z,11.93
2018-11-02T21:57:29.033Z,11.97
2018-11-02T21:59:57.131Z,12.01
2018-11-02T22:02:25.232Z,12.02
2018-11-02T22:04:53.582Z,12.03
2018-11-02T22:07:21.677Z,12.04
2018-11-02T22:09:49.759Z,12.00
2018-11-02T22:12:17.880Z,11.97
2018-11-02T22:14:45.964Z,11.97
2018-11-02T22:17:14.207Z,11.96
2018-11-02T22:19:42.291Z,11.96
2018-11-02T22:22:10.407Z,11.96
2018-11-02T22:24:38.723Z,11.96
2018-11-02T22:27:06.840Z,11.96
2018-11-02T22:29:34.903Z,11.97
2018-11-02T22:32:02.987Z,11.99
2018-11-02T22:34:31.083Z,11.99
2018-11-02T22:36:59.163Z,11.98
2018-11-02T22:39:27.273Z,11.96
2018-11-02T22:41:55.451Z,11.93
2018-11-02T22:44:23.497Z,11.89
2018-11-02T22:46:51.574Z,11.85
2018-11-02T22:49:19.666Z,11.83
2018-11-02T22:51:47.746Z,11.80
2018-11-02T22:54:15.845Z,11.77
2018-11-02T22:56:43.933Z,11.76
2018-11-02T22:59:12.024Z,11.74
2018-11-02T23:01:40.113Z,11.73
2018-11-02T23:04:08.204Z,11.73
2018-11-02T23:06:36.286Z,11.75
2018-11-02T23:09:05.931Z,11.76
2018-11-02T23:11:34.025Z,11.78
2018-11-02T23:14:02.131Z,11.79
2018-11-02T23:16:30.222Z,11.78
2018-11-02T23:18:58.325Z,11.78
2018-11-02T23:21:26.403Z,11.78
2018-11-02T23:23:54.706Z,11.76
2018-11-02T23:26:22.796Z,11.75
2018-11-02T23:28:50.886Z,11.72
2018-11-02T23:31:18.980Z,11.71
2018-11-02T23:33:47.068Z,11.68
2018-11-02T23:36:15.167Z,11.66
2018-11-02T23:38:43.261Z,11.67
2018-11-02T23:41:11.349Z,11.67
2018-11-02T23:43:39.468Z,11.69
2018-11-02T23:46:07.583Z,11.67
2018-11-02T23:48:35.670Z,11.61
2018-11-02T23:51:03.783Z,11.56
2018-11-02T23:53:31.887Z,11.52
2018-11-02T23:56:00.004Z,11.51
2018-11-02T23:58:28.084Z,11.48
